Time;durP1;ratioP1;P1;durP2;ratioP2;P2;SDS_P1;SDS_P2;PMS_P1;PMS_P2;Temp;Humidity;BMP_temperature;BMP_pressure;BME280_temperature;BME280_humidity;BME280_pressure;Samples;Min_cycle;Max_cycle;Signal;HPM_P1;HPM_P2
2023/03/23 00:02:22;;;;;;;0.63;0.57;;;;;;;;;;4959897;28;20403;-75
2023/03/23 00:04:49;;;;;;;0.30;0.30;;;;;;;;;;4967724;28;20057;-74
2023/03/23 00:07:23;;;;;;;10.60;0.95;;;;;;;;;;4964177;28;20156;-74
2023/03/23 00:09:52;;;;;;;1.92;0.30;;;;;;;;;;4953258;28;20385;-74
2023/03/23 00:12:19;;;;;;;0.20;0.10;;;;;;;;;;4965974;28;20542;-75
2023/03/23 00:14:45;;;;;;;2.08;0.55;;;;;;;;;;4967449;28;20050;-75
2023/03/23 00:17:14;;;;;;;2.15;1.50;;;;;;;;;;4954845;28;20057;-75
2023/03/23 00:19:46;;;;;;;0.20;0.17;;;;;;;;;;4981035;28;20038;-73
2023/03/23 00:22:13;;;;;;;1.08;1.08;;;;;;;;;;4954299;28;20108;-72
2023/03/23 00:24:39;;;;;;;0.20;0.20;;;;;;;;;;4980830;28;20046;-75
2023/03/23 00:27:05;;;;;;;0.20;0.13;;;;;;;;;;4978890;28;20455;-75
2023/03/23 00:29:32;;;;;;;0.20;0.20;;;;;;;;;;4954195;28;20034;-76
2023/03/23 00:31:58;;;;;;;0.20;0.10;;;;;;;;;;4978396;28;20050;-73
2023/03/23 00:34:24;;;;;;;0.20;0.10;;;;;;;;;;4978138;28;20533;-74
2023/03/23 00:36:53;;;;;;;0.20;0.20;;;;;;;;;;4982587;28;20535;-74
2023/03/23 00:39:19;;;;;;;0.20;0.10;;;;;;;;;;4981805;28;20042;-75
2023/03/23 00:41:46;;;;;;;0.20;0.10;;;;;;;;;;4992251;28;20081;-74
2023/03/23 00:44:19;;;;;;;0.20;0.17;;;;;;;;;;4990506;28;20422;-74
2023/03/23 00:46:48;;;;;;;0.20;0.10;;;;;;;;;;4975826;28;20376;-73
2023/03/23 00:49:15;;;;;;;0.20;0.10;;;;;;;;;;4971878;28;20043;-74
2023/03/23 00:51:42;;;;;;;0.20;0.10;;;;;;;;;;4970063;28;20080;-74
2023/03/23 00:54:08;;;;;;;0.28;0.28;;;;;;;;;;4967253;28;20180;-74
2023/03/23 00:56:35;;;;;;;0.32;0.32;;;;;;;;;;4966926;28;20046;-73
2023/03/23 00:59:01;;;;;;;0.40;0.40;;;;;;;;;;4972347;28;20034;-73
2023/03/23 01:01:27;;;;;;;0.85;0.55;;;;;;;;;;4988573;28;20031;-73
2023/03/23 01:04:00;;;;;;;0.30;0.25;;;;;;;;;;4970236;28;20046;-75
2023/03/23 01:06:27;;;;;;;0.20;0.10;;;;;;;;;;4970920;28;20092;-72
2023/03/23 01:08:53;;;;;;;0.35;0.30;;;;;;;;;;4972082;28;20039;-74
2023/03/23 01:11:20;;;;;;;0.40;0.40;;;;;;;;;;4956630;28;20055;-76
2023/03/23 01:13:46;;;;;;;0.25;0.22;;;;;;;;;;4966939;28;20500;-74
2023/03/23 01:16:12;;;;;;;0.20;0.10;;;;;;;;;;4971920;28;20890;-74
2023/03/23 01:18:38;;;;;;;0.50;0.50;;;;;;;;;;4972477;28;20663;-74
2023/03/23 01:21:05;;;;;;;0.28;0.28;;;;;;;;;;4971857;28;20510;-73
2023/03/23 01:23:33;;;;;;;0.20;0.10;;;;;;;;;;4953239;28;20093;-74
2023/03/23 01:26:02;;;;;;;0.20;0.10;;;;;;;;;;4959004;28;20092;-73
2023/03/23 01:28:28;;;;;;;2.75;0.70;;;;;;;;;;4968949;28;20034;-72
2023/03/23 01:30:59;;;;;;;0.20;0.10;;;;;;;;;;4974005;28;20659;-74
2023/03/23 01:33:25;;;;;;;0.40;0.20;;;;;;;;;;4975032;28;20046;-74
2023/03/23 01:35:51;;;;;;;0.20;0.20;;;;;;;;;;4975181;28;20526;-76
2023/03/23 01:38:17;;;;;;;0.20;0.20;;;;;;;;;;4980225;28;20045;-73
2023/03/23 01:40:44;;;;;;;0.82;0.70;;;;;;;;;;4980929;28;20034;-73
2023/03/23 01:43:13;;;;;;;0.35;0.30;;;;;;;;;;4973905;28;20054;-74
2023/03/23 01:45:40;;;;;;;0.20;0.10;;;;;;;;;;4964006;28;20046;-74
2023/03/23 01:48:10;;;;;;;0.35;0.20;;;;;;;;;;4977465;28;20042;-74
2023/03/23 01:50:44;;;;;;;0.35;0.35;;;;;;;;;;4976797;28;20121;-74
2023/03/23 01:53:11;;;;;;;0.20;0.10;;;;;;;;;;4985752;28;20491;-72
2023/03/23 01:55:38;;;;;;;0.32;0.32;;;;;;;;;;4980705;28;20042;-74
2023/03/23 01:58:05;;;;;;;1.33;0.57;;;;;;;;;;4957412;28;20038;-73
2023/03/23 02:00:31;;;;;;;0.20;0.10;;;;;;;;;;4973363;28;20039;-74
2023/03/23 02:02:57;;;;;;;0.20;0.10;;;;;;;;;;4974746;28;20041;-73
2023/03/23 02:05:35;;;;;;;0.20;0.10;;;;;;;;;;4995278;28;20053;-74
2023/03/23 02:08:02;;;;;;;0.30;0.25;;;;;;;;;;4969649;28;20517;-73
2023/03/23 02:10:29;;;;;;;0.20;0.10;;;;;;;;;;4971078;28;20396;-73
2023/03/23 02:12:55;;;;;;;0.20;0.10;;;;;;;;;;4985791;28;20042;-73
2023/03/23 02:15:22;;;;;;;6.80;0.57;;;;;;;;;;4969323;28;20128;-74
2023/03/23 02:18:00;;;;;;;0.20;0.10;;;;;;;;;;4966861;28;20050;-74
2023/03/23 02:20:29;;;;;;;0.20;0.10;;;;;;;;;;4965462;28;20046;-73
2023/03/23 02:22:58;;;;;;;0.20;0.10;;;;;;;;;;4955213;28;20030;-75
2023/03/23 02:25:24;;;;;;;0.20;0.10;;;;;;;;;;4972990;28;20042;-76
2023/03/23 02:28:05;;;;;;;0.20;0.10;;;;;;;;;;4943918;28;20049;-75
2023/03/23 02:30:40;;;;;;;0.20;0.10;;;;;;;;;;4951299;28;20045;-73
2023/03/23 02:33:08;;;;;;;0.22;0.20;;;;;;;;;;4967685;28;20129;-74
2023/03/23 02:35:44;;;;;;;0.20;0.10;;;;;;;;;;4979135;28;20058;-74
2023/03/23 02:38:16;;;;;;;0.20;0.10;;;;;;;;;;4951641;28;20613;-74
2023/03/23 02:40:43;;;;;;;0.20;0.10;;;;;;;;;;4967276;28;20057;-74
2023/03/23 02:43:11;;;;;;;0.20;0.10;;;;;;;;;;4973391;28;20049;-74
2023/03/23 02:45:37;;;;;;;0.40;0.20;;;;;;;;;;4969836;28;20101;-74
2023/03/23 02:48:04;;;;;;;0.50;0.30;;;;;;;;;;4971928;28;20070;-75
2023/03/23 02:50:32;;;;;;;0.20;0.10;;;;;;;;;;4981242;28;20414;-73
2023/03/23 02:52:59;;;;;;;0.20;0.10;;;;;;;;;;4963961;28;20206;-73
2023/03/23 02:55:26;;;;;;;0.20;0.10;;;;;;;;;;4968281;28;20470;-74
2023/03/23 02:57:53;;;;;;;0.20;0.10;;;;;;;;;;4971789;28;20042;-74
2023/03/23 03:00:19;;;;;;;0.20;0.10;;;;;;;;;;4964523;28;20038;-75
2023/03/23 03:02:53;;;;;;;0.20;0.10;;;;;;;;;;4969313;28;20050;-73
2023/03/23 03:05:20;;;;;;;0.20;0.10;;;;;;;;;;4971350;28;20053;-74
2023/03/23 03:08:06;;;;;;;0.40;0.40;;;;;;;;;;4968110;28;20074;-74
2023/03/23 03:10:34;;;;;;;0.30;0.30;;;;;;;;;;4964548;28;20087;-74
2023/03/23 03:13:07;;;;;;;0.20;0.10;;;;;;;;;;4942679;28;20042;-74
2023/03/23 03:15:38;;;;;;;0.20;0.13;;;;;;;;;;4943347;28;20065;-73
2023/03/23 03:18:07;;;;;;;0.20;0.10;;;;;;;;;;4971062;28;20160;-75
2023/03/23 03:20:35;;;;;;;0.20;0.10;;;;;;;;;;4965029;28;20042;-75
2023/03/23 03:23:01;;;;;;;0.20;0.10;;;;;;;;;;4964672;28;20093;-74
2023/03/23 03:25:28;;;;;;;0.20;0.17;;;;;;;;;;4955988;28;20104;-74
2023/03/23 03:27:56;;;;;;;0.20;0.10;;;;;;;;;;4970048;28;20046;-74
2023/03/23 03:30:26;;;;;;;0.22;0.20;;;;;;;;;;4945780;28;20136;-74
2023/03/23 03:32:53;;;;;;;0.20;0.10;;;;;;;;;;4965857;28;20136;-74
2023/03/23 03:35:21;;;;;;;0.20;0.10;;;;;;;;;;4948385;28;20502;-74
2023/03/23 03:37:47;;;;;;;0.20;0.05;;;;;;;;;;4958025;28;20045;-75
2023/03/23 03:40:15;;;;;;;0.20;0.10;;;;;;;;;;4951699;28;20537;-75
2023/03/23 03:42:42;;;;;;;0.20;0.10;;;;;;;;;;4972737;28;20684;-75
2023/03/23 03:45:09;;;;;;;0.20;0.10;;;;;;;;;;4970109;28;20071;-73
2023/03/23 03:47:36;;;;;;;0.43;0.35;;;;;;;;;;4957050;28;20062;-75
2023/03/23 03:50:02;;;;;;;0.30;0.28;;;;;;;;;;4971166;28;20129;-75
2023/03/23 03:52:28;;;;;;;0.20;0.10;;;;;;;;;;4970704;28;20046;-73
2023/03/23 03:54:55;;;;;;;0.20;0.10;;;;;;;;;;4968294;28;20138;-75
2023/03/23 03:57:21;;;;;;;0.20;0.10;;;;;;;;;;4967402;28;20054;-75
2023/03/23 03:59:47;;;;;;;0.20;0.10;;;;;;;;;;4951712;28;20047;-74
2023/03/23 04:02:16;;;;;;;0.30;0.20;;;;;;;;;;4973844;28;20038;-74
2023/03/23 04:04:43;;;;;;;0.20;0.10;;;;;;;;;;4995500;28;20039;-75
2023/03/23 04:07:13;;;;;;;0.20;0.10;;;;;;;;;;4965531;28;20049;-75
2023/03/23 04:09:39;;;;;;;0.20;0.10;;;;;;;;;;4960597;28;21423;-74
2023/03/23 04:12:05;;;;;;;0.20;0.10;;;;;;;;;;4972401;28;20046;-74
2023/03/23 04:14:31;;;;;;;2.15;0.47;;;;;;;;;;4983380;28;20074;-75
2023/03/23 04:16:58;;;;;;;0.68;0.30;;;;;;;;;;4974050;28;20584;-73
2023/03/23 04:19:25;;;;;;;0.22;0.22;;;;;;;;;;4971866;28;20050;-75
2023/03/23 04:21:51;;;;;;;0.20;0.10;;;;;;;;;;4969605;28;20043;-75
2023/03/23 04:24:20;;;;;;;0.20;0.10;;;;;;;;;;4957092;28;20038;-75
2023/03/23 04:26:46;;;;;;;0.20;0.00;;;;;;;;;;4992355;28;20041;-74
2023/03/23 04:29:12;;;;;;;0.25;0.22;;;;;;;;;;4993908;28;20067;-75
2023/03/23 04:31:40;;;;;;;0.20;0.10;;;;;;;;;;4952051;28;20088;-75
2023/03/23 04:34:06;;;;;;;0.20;0.20;;;;;;;;;;4950858;28;20042;-75
2023/03/23 04:36:33;;;;;;;0.93;0.52;;;;;;;;;;4972769;28;20054;-75
2023/03/23 04:39:00;;;;;;;0.20;0.13;;;;;;;;;;4970617;28;20057;-74
2023/03/23 04:41:26;;;;;;;0.85;0.17;;;;;;;;;;4952772;28;20201;-75
2023/03/23 04:43:56;;;;;;;0.22;0.15;;;;;;;;;;4970085;28;20047;-76
2023/03/23 04:46:22;;;;;;;1.65;0.73;;;;;;;;;;4969859;28;20117;-74
2023/03/23 04:48:48;;;;;;;0.20;0.10;;;;;;;;;;4960007;28;20133;-75
2023/03/23 04:51:14;;;;;;;0.20;0.10;;;;;;;;;;4977136;28;20161;-74
2023/03/23 04:53:40;;;;;;;1.35;1.25;;;;;;;;;;4993129;23;20410;-80
2023/03/23 04:56:07;;;;;;;0.30;0.20;;;;;;;;;;4962714;28;20081;-79
2023/03/23 04:58:37;;;;;;;0.32;0.32;;;;;;;;;;4983029;28;20041;-77
2023/03/23 05:01:04;;;;;;;0.30;0.20;;;;;;;;;;4970849;28;20038;-78
2023/03/23 05:03:30;;;;;;;0.20;0.08;;;;;;;;;;4986972;28;20045;-81
2023/03/23 05:05:56;;;;;;;0.20;0.10;;;;;;;;;;4983672;28;20049;-81
2023/03/23 05:08:26;;;;;;;0.20;0.10;;;;;;;;;;4969384;28;20100;-80
2023/03/23 05:10:59;;;;;;;0.20;0.10;;;;;;;;;;4987415;28;20125;-82
2023/03/23 05:13:27;;;;;;;0.28;0.20;;;;;;;;;;4972690;28;20097;-80
2023/03/23 05:15:53;;;;;;;0.20;0.10;;;;;;;;;;4983430;28;20392;-80
2023/03/23 05:18:20;;;;;;;0.20;0.10;;;;;;;;;;4983101;28;20140;-78
2023/03/23 05:20:46;;;;;;;0.20;0.10;;;;;;;;;;4987802;28;20053;-79
2023/03/23 05:23:12;;;;;;;0.20;0.10;;;;;;;;;;4982549;28;20149;-79
2023/03/23 05:25:41;;;;;;;0.20;0.10;;;;;;;;;;4974207;28;20046;-80
2023/03/23 05:28:08;;;;;;;0.20;0.10;;;;;;;;;;4977366;28;20173;-78
2023/03/23 05:30:35;;;;;;;0.35;0.32;;;;;;;;;;4988359;28;20376;-79
2023/03/23 05:33:02;;;;;;;0.20;0.10;;;;;;;;;;4972284;28;20050;-78
2023/03/23 05:35:28;;;;;;;0.20;0.10;;;;;;;;;;4986856;28;20046;-81
2023/03/23 05:37:55;;;;;;;0.20;0.10;;;;;;;;;;4989922;28;20485;-77
2023/03/23 05:40:21;;;;;;;0.20;0.10;;;;;;;;;;4987144;28;20043;-81
2023/03/23 05:42:48;;;;;;;0.20;0.17;;;;;;;;;;4983364;28;20478;-81
2023/03/23 05:45:16;;;;;;;0.20;0.10;;;;;;;;;;4973085;28;20077;-77
2023/03/23 05:47:42;;;;;;;0.20;0.10;;;;;;;;;;4986834;28;20491;-78
2023/03/23 05:50:09;;;;;;;0.20;0.20;;;;;;;;;;4974715;28;20045;-80
2023/03/23 05:52:36;;;;;;;0.20;0.17;;;;;;;;;;4983432;28;20046;-79
2023/03/23 05:55:03;;;;;;;0.20;0.10;;;;;;;;;;4985759;28;20057;-78
2023/03/23 05:57:29;;;;;;;0.20;0.08;;;;;;;;;;4978007;28;20054;-79
2023/03/23 05:59:57;;;;;;;0.20;0.10;;;;;;;;;;4964937;28;20727;-78
2023/03/23 06:02:23;;;;;;;0.20;0.10;;;;;;;;;;4983912;28;20148;-79
2023/03/23 06:04:50;;;;;;;0.20;0.10;;;;;;;;;;4960810;28;20046;-78
2023/03/23 06:07:16;;;;;;;0.20;0.10;;;;;;;;;;4988155;28;22615;-78
2023/03/23 06:09:42;;;;;;;0.20;0.10;;;;;;;;;;4961604;28;20033;-77
2023/03/23 06:12:09;;;;;;;0.20;0.10;;;;;;;;;;4963032;28;20469;-80
2023/03/23 06:14:36;;;;;;;0.20;0.10;;;;;;;;;;4961384;28;22463;-79
2023/03/23 06:17:02;;;;;;;0.20;0.10;;;;;;;;;;4964629;28;20058;-80
2023/03/23 06:19:28;;;;;;;0.20;0.10;;;;;;;;;;4981780;28;20651;-78
2023/03/23 06:21:57;;;;;;;0.22;0.20;;;;;;;;;;4978738;28;20069;-79
2023/03/23 06:24:23;;;;;;;0.73;0.73;;;;;;;;;;4980772;28;20057;-79
2023/03/23 06:26:49;;;;;;;0.20;0.10;;;;;;;;;;4964965;28;20546;-78
2023/03/23 06:29:16;;;;;;;0.85;0.57;;;;;;;;;;4971195;28;20414;-79
2023/03/23 06:31:47;;;;;;;0.20;0.10;;;;;;;;;;4982776;28;20054;-79
2023/03/23 06:34:14;;;;;;;0.20;0.20;;;;;;;;;;4980360;28;20183;-81
2023/03/23 06:36:44;;;;;;;0.20;0.10;;;;;;;;;;4981421;28;20192;-80
2023/03/23 06:39:10;;;;;;;0.20;0.10;;;;;;;;;;4980295;28;20143;-79
2023/03/23 06:41:36;;;;;;;0.20;0.10;;;;;;;;;;4975018;28;20145;-81
2023/03/23 06:44:02;;;;;;;2.83;0.50;;;;;;;;;;4961075;28;20133;-80
2023/03/23 06:46:29;;;;;;;0.20;0.10;;;;;;;;;;4983577;28;20052;-79
2023/03/23 06:48:55;;;;;;;0.20;0.10;;;;;;;;;;4978940;28;20050;-79
2023/03/23 06:51:21;;;;;;;0.40;0.40;;;;;;;;;;4976292;28;24378;-77
2023/03/23 06:53:47;;;;;;;0.20;0.10;;;;;;;;;;4974989;28;21136;-78
2023/03/23 06:56:14;;;;;;;0.20;0.10;;;;;;;;;;4980179;28;20510;-79
2023/03/23 06:58:41;;;;;;;0.20;0.10;;;;;;;;;;4970295;28;20081;-78
2023/03/23 07:01:08;;;;;;;0.20;0.10;;;;;;;;;;4972617;28;20053;-79
2023/03/23 07:03:36;;;;;;;0.20;0.10;;;;;;;;;;4979073;28;23055;-78
2023/03/23 07:06:03;;;;;;;0.20;0.10;;;;;;;;;;4979439;28;20741;-77
2023/03/23 07:08:29;;;;;;;0.20;0.10;;;;;;;;;;4975371;28;20050;-82
2023/03/23 07:10:55;;;;;;;0.20;0.10;;;;;;;;;;4961050;28;20250;-78
2023/03/23 07:13:22;;;;;;;1.85;0.30;;;;;;;;;;4967513;28;21968;-82
2023/03/23 07:15:50;;;;;;;0.20;0.10;;;;;;;;;;4947187;28;20541;-77
2023/03/23 07:18:16;;;;;;;0.20;0.10;;;;;;;;;;4967372;28;20402;-78
2023/03/23 07:20:42;;;;;;;0.20;0.10;;;;;;;;;;4978693;28;20485;-80
2023/03/23 07:23:08;;;;;;;0.73;0.63;;;;;;;;;;4965963;28;20161;-80
2023/03/23 07:25:35;;;;;;;0.20;0.10;;;;;;;;;;4973351;28;20052;-78
2023/03/23 07:28:02;;;;;;;1.10;0.90;;;;;;;;;;4975586;28;20401;-77
2023/03/23 07:30:29;;;;;;;0.20;0.05;;;;;;;;;;4953634;28;20691;-80
2023/03/23 07:32:55;;;;;;;0.20;0.10;;;;;;;;;;4968852;28;20568;-79
2023/03/23 07:35:21;;;;;;;0.20;0.10;;;;;;;;;;4978783;28;20052;-76
2023/03/23 07:37:48;;;;;;;0.20;0.10;;;;;;;;;;4956192;28;20044;-81
2023/03/23 07:40:15;;;;;;;0.20;0.10;;;;;;;;;;4960083;28;20033;-79
2023/03/23 07:42:43;;;;;;;0.20;0.10;;;;;;;;;;4976834;28;20128;-79
2023/03/23 07:45:10;;;;;;;3.33;1.40;;;;;;;;;;4979504;28;20042;-78
2023/03/23 07:47:36;;;;;;;0.30;0.30;;;;;;;;;;4959884;28;20046;-77
2023/03/23 07:50:02;;;;;;;0.20;0.10;;;;;;;;;;4977366;28;20075;-80
2023/03/23 07:52:30;;;;;;;0.20;0.10;;;;;;;;;;4981322;28;20874;-80
2023/03/23 07:54:56;;;;;;;0.20;0.10;;;;;;;;;;4981802;28;20045;-75
2023/03/23 07:57:22;;;;;;;0.20;0.10;;;;;;;;;;4966658;28;20042;-84
2023/03/23 07:59:48;;;;;;;0.20;0.10;;;;;;;;;;4976617;28;20049;-81
2023/03/23 08:02:14;;;;;;;0.47;0.30;;;;;;;;;;4984544;28;20046;-78
2023/03/23 08:04:42;;;;;;;2.05;0.95;;;;;;;;;;4970615;28;20041;-77
2023/03/23 08:07:12;;;;;;;0.20;0.10;;;;;;;;;;4968961;28;20046;-79
2023/03/23 08:09:38;;;;;;;0.20;0.10;;;;;;;;;;4981968;28;20748;-81
2023/03/23 08:12:04;;;;;;;0.20;0.10;;;;;;;;;;4992374;28;20691;-78
2023/03/23 08:14:30;;;;;;;0.30;0.30;;;;;;;;;;4983006;28;20085;-80
2023/03/23 08:16:57;;;;;;;0.30;0.20;;;;;;;;;;4979569;28;20042;-83
2023/03/23 08:19:23;;;;;;;0.20;0.10;;;;;;;;;;4990480;28;20049;-79
2023/03/23 08:21:49;;;;;;;5.57;3.22;;;;;;;;;;4986711;28;20042;-79
2023/03/23 08:24:16;;;;;;;0.20;0.10;;;;;;;;;;4984721;28;20499;-79
2023/03/23 08:26:42;;;;;;;0.40;0.40;;;;;;;;;;4977606;28;20495;-77
2023/03/23 08:29:08;;;;;;;0.20;0.10;;;;;;;;;;4983363;28;20546;-77
2023/03/23 08:31:35;;;;;;;0.25;0.15;;;;;;;;;;4974386;28;20129;-78
2023/03/23 08:34:02;;;;;;;0.20;0.10;;;;;;;;;;4962331;28;20180;-78
2023/03/23 08:36:28;;;;;;;0.43;0.43;;;;;;;;;;4983198;28;20053;-78
2023/03/23 08:38:54;;;;;;;0.20;0.10;;;;;;;;;;4985441;28;20074;-79
2023/03/23 08:41:20;;;;;;;1.30;0.47;;;;;;;;;;4974547;28;20446;-80
2023/03/23 08:43:47;;;;;;;0.20;0.10;;;;;;;;;;4985614;28;20099;-80
2023/03/23 08:46:13;;;;;;;0.20;0.10;;;;;;;;;;4984598;28;20042;-79
2023/03/23 08:48:39;;;;;;;0.20;0.10;;;;;;;;;;4992270;28;20042;-79
2023/03/23 08:51:06;;;;;;;0.20;0.10;;;;;;;;;;4968634;28;20490;-79
2023/03/23 08:53:33;;;;;;;0.28;0.20;;;;;;;;;;4989881;28;20038;-82
2023/03/23 08:56:07;;;;;;;0.20;0.10;;;;;;;;;;4990923;28;20041;-78
2023/03/23 08:58:34;;;;;;;0.20;0.10;;;;;;;;;;4992255;28;20077;-80
2023/03/23 09:01:00;;;;;;;1.10;0.70;;;;;;;;;;4980177;28;22260;-81
2023/03/23 09:03:26;;;;;;;0.35;0.28;;;;;;;;;;4984452;28;20189;-85
2023/03/23 09:05:53;;;;;;;0.30;0.30;;;;;;;;;;4977186;28;20041;-81
2023/03/23 09:08:19;;;;;;;0.20;0.10;;;;;;;;;;4978570;28;20395;-80
2023/03/23 09:10:45;;;;;;;0.20;0.10;;;;;;;;;;4992603;28;20088;-80
2023/03/23 09:13:11;;;;;;;1.98;0.10;;;;;;;;;;4986744;28;20554;-80
2023/03/23 09:15:37;;;;;;;0.20;0.10;;;;;;;;;;4995954;28;20592;-80
2023/03/23 09:18:04;;;;;;;0.20;0.20;;;;;;;;;;4979347;28;20038;-78
2023/03/23 09:20:30;;;;;;;1.08;0.93;;;;;;;;;;4991294;28;20038;-78
2023/03/23 09:22:57;;;;;;;2.33;0.98;;;;;;;;;;4991763;28;20042;-78
2023/03/23 09:25:25;;;;;;;0.25;0.20;;;;;;;;;;4986386;28;20034;-80
2023/03/23 09:27:57;;;;;;;0.20;0.20;;;;;;;;;;4990853;28;20038;-78
2023/03/23 09:30:33;;;;;;;0.52;0.38;;;;;;;;;;4993805;28;20042;-79
2023/03/23 09:33:01;;;;;;;0.20;0.10;;;;;;;;;;4991244;28;20124;-79
2023/03/23 09:35:27;;;;;;;0.20;0.10;;;;;;;;;;4977022;28;20050;-79
2023/03/23 09:37:54;;;;;;;2.15;0.63;;;;;;;;;;4988714;28;20042;-77
2023/03/23 09:40:20;;;;;;;0.20;0.10;;;;;;;;;;4989354;28;20501;-79
2023/03/23 09:43:02;;;;;;;0.32;0.20;;;;;;;;;;4965195;28;20061;-84
2023/03/23 09:45:28;;;;;;;0.35;0.35;;;;;;;;;;4986343;28;20418;-83
2023/03/23 09:48:00;;;;;;;0.35;0.30;;;;;;;;;;4987091;28;20038;-79
2023/03/23 09:50:32;;;;;;;0.20;0.10;;;;;;;;;;4996232;28;20061;-80
2023/03/23 09:53:04;;;;;;;0.20;0.10;;;;;;;;;;4986569;28;20079;-78
2023/03/23 09:55:30;;;;;;;0.20;0.10;;;;;;;;;;4979096;28;20034;-78
2023/03/23 09:58:00;;;;;;;0.20;0.10;;;;;;;;;;4987945;28;20466;-79
2023/03/23 10:00:35;;;;;;;0.20;0.10;;;;;;;;;;4992079;28;20101;-78
2023/03/23 10:03:05;;;;;;;0.35;0.35;;;;;;;;;;4995175;28;20049;-80
2023/03/23 10:05:33;;;;;;;0.20;0.15;;;;;;;;;;4979727;28;20038;-79
2023/03/23 10:08:00;;;;;;;0.85;0.85;;;;;;;;;;4988239;28;20031;-80
2023/03/23 10:10:32;;;;;;;0.20;0.15;;;;;;;;;;4994969;28;20038;-79
2023/03/23 10:13:02;;;;;;;0.47;0.47;;;;;;;;;;4990639;28;20065;-82
2023/03/23 10:15:33;;;;;;;1.75;1.23;;;;;;;;;;4984036;28;20471;-78
2023/03/23 10:18:04;;;;;;;0.20;0.10;;;;;;;;;;4990963;28;20042;-81
2023/03/23 10:20:37;;;;;;;1.35;0.35;;;;;;;;;;4993527;28;20049;-81
2023/03/23 10:23:15;;;;;;;0.20;0.10;;;;;;;;;;4997903;28;20129;-85
2023/03/23 10:25:51;;;;;;;1.10;0.47;;;;;;;;;;4994433;28;20034;-82
2023/03/23 10:28:19;;;;;;;0.20;0.08;;;;;;;;;;4990956;28;20046;-79
2023/03/23 10:30:47;;;;;;;0.90;0.32;;;;;;;;;;4992680;28;20052;-79
2023/03/23 10:33:20;;;;;;;1.75;0.52;;;;;;;;;;4993333;28;20042;-79
2023/03/23 10:35:49;;;;;;;0.20;0.10;;;;;;;;;;4994467;28;20176;-80
2023/03/23 10:38:19;;;;;;;0.20;0.10;;;;;;;;;;4990672;28;20065;-79
2023/03/23 10:40:49;;;;;;;0.20;0.10;;;;;;;;;;4993307;28;20056;-80
2023/03/23 10:43:15;;;;;;;0.20;0.10;;;;;;;;;;4991668;28;20049;-78
2023/03/23 10:45:43;;;;;;;0.20;0.10;;;;;;;;;;4986421;28;20082;-78
2023/03/23 10:48:17;;;;;;;0.20;0.10;;;;;;;;;;4991414;28;20088;-79
2023/03/23 10:50:46;;;;;;;0.40;0.38;;;;;;;;;;4991616;28;20045;-79
2023/03/23 10:53:21;;;;;;;0.50;0.20;;;;;;;;;;5009030;23;20576;-76
2023/03/23 10:55:48;;;;;;;0.32;0.20;;;;;;;;;;4970709;28;20613;-76
2023/03/23 10:58:23;;;;;;;0.20;0.10;;;;;;;;;;4975482;28;20490;-76
2023/03/23 11:00:50;;;;;;;0.20;0.10;;;;;;;;;;4992664;28;20050;-76
2023/03/23 11:03:17;;;;;;;0.20;0.10;;;;;;;;;;4969078;28;20046;-75
2023/03/23 11:05:44;;;;;;;0.25;0.25;;;;;;;;;;4974134;28;20049;-75
2023/03/23 11:08:15;;;;;;;0.40;0.28;;;;;;;;;;4969373;28;20092;-76
2023/03/23 11:10:49;;;;;;;0.40;0.30;;;;;;;;;;4987054;28;20042;-76
2023/03/23 11:13:16;;;;;;;1.13;0.40;;;;;;;;;;4953852;28;20038;-76
2023/03/23 11:15:45;;;;;;;3.50;0.30;;;;;;;;;;4983777;28;20050;-77
2023/03/23 11:18:12;;;;;;;0.30;0.10;;;;;;;;;;4973083;28;20312;-74
2023/03/23 11:20:41;;;;;;;0.20;0.10;;;;;;;;;;4989615;28;20039;-75
2023/03/23 11:23:11;;;;;;;0.20;0.10;;;;;;;;;;4975756;28;20592;-75
2023/03/23 11:26:07;;;;;;;0.20;0.10;;;;;;;;;;4988999;28;20770;-74
2023/03/23 11:28:35;;;;;;;0.20;0.10;;;;;;;;;;4960914;28;20055;-74
2023/03/23 11:31:02;;;;;;;0.20;0.10;;;;;;;;;;4973055;28;20081;-74
2023/03/23 11:33:47;;;;;;;0.20;0.10;;;;;;;;;;4988053;28;20046;-74
2023/03/23 11:36:14;;;;;;;0.20;0.10;;;;;;;;;;4968729;28;20169;-73
2023/03/23 11:38:40;;;;;;;0.20;0.10;;;;;;;;;;4987257;28;20046;-73
2023/03/23 11:41:11;;;;;;;0.20;0.10;;;;;;;;;;4975466;28;20034;-75
2023/03/23 11:43:40;;;;;;;0.30;0.17;;;;;;;;;;4972329;28;20050;-76
2023/03/23 11:46:13;;;;;;;0.20;0.10;;;;;;;;;;4956952;28;20495;-72
2023/03/23 11:48:43;;;;;;;0.30;0.20;;;;;;;;;;4974504;28;20525;-74
2023/03/23 11:51:13;;;;;;;0.30;0.10;;;;;;;;;;4992135;28;20417;-73
2023/03/23 11:53:55;;;;;;;0.20;0.10;;;;;;;;;;4991906;28;20522;-72
2023/03/23 11:56:26;;;;;;;0.20;0.20;;;;;;;;;;4987278;28;20134;-74
2023/03/23 11:58:53;;;;;;;0.20;0.10;;;;;;;;;;4966308;28;20062;-73
2023/03/23 12:01:37;;;;;;;0.20;0.10;;;;;;;;;;4991681;28;20129;-75
2023/03/23 12:04:23;;;;;;;0.20;0.20;;;;;;;;;;4975019;28;20133;-74
2023/03/23 12:06:52;;;;;;;0.20;0.10;;;;;;;;;;4957572;28;20504;-73
2023/03/23 12:09:18;;;;;;;0.20;0.10;;;;;;;;;;4974437;28;20125;-74
2023/03/23 12:11:53;;;;;;;0.20;0.10;;;;;;;;;;4971542;28;20034;-73
2023/03/23 12:14:26;;;;;;;0.32;0.32;;;;;;;;;;4992671;28;20760;-75
2023/03/23 12:16:58;;;;;;;0.55;0.55;;;;;;;;;;4977468;28;20242;-73
2023/03/23 12:19:47;;;;;;;0.20;0.10;;;;;;;;;;4978495;28;20031;-74
2023/03/23 12:22:32;;;;;;;0.20;0.10;;;;;;;;;;4990464;28;20070;-74
2023/03/23 12:25:17;;;;;;;0.20;0.10;;;;;;;;;;4994871;28;20057;-75
2023/03/23 12:27:52;;;;;;;0.20;0.10;;;;;;;;;;4974254;28;20041;-73
2023/03/23 12:30:22;;;;;;;0.20;0.20;;;;;;;;;;4988572;28;20049;-74
2023/03/23 12:32:47;;;;;;;0.20;0.10;;;;;;;;;;4956939;28;20097;-74
2023/03/23 12:35:24;;;;;;;0.20;0.10;;;;;;;;;;4992011;28;20105;-74
2023/03/23 12:37:56;;;;;;;0.35;0.35;;;;;;;;;;4976189;28;20074;-74
2023/03/23 12:40:30;;;;;;;0.20;0.10;;;;;;;;;;4961598;28;20057;-73
2023/03/23 12:43:03;;;;;;;0.20;0.10;;;;;;;;;;4988743;28;20502;-73
2023/03/23 12:45:41;;;;;;;0.22;0.20;;;;;;;;;;4976882;28;20081;-73
2023/03/23 12:48:13;;;;;;;0.73;0.70;;;;;;;;;;4987141;28;20610;-72
2023/03/23 12:50:39;;;;;;;0.25;0.25;;;;;;;;;;4975275;28;20042;-72
2023/03/23 12:53:17;;;;;;;1.23;1.00;;;;;;;;;;4982130;28;20034;-75
2023/03/23 12:55:49;;;;;;;0.20;0.10;;;;;;;;;;4993136;28;20042;-75
2023/03/23 12:58:29;;;;;;;0.20;0.10;;;;;;;;;;4974437;28;20039;-75
2023/03/23 13:01:01;;;;;;;0.20;0.10;;;;;;;;;;4991394;28;20659;-72
2023/03/23 13:03:47;;;;;;;1.48;1.38;;;;;;;;;;4977903;28;20081;-75
2023/03/23 13:06:19;;;;;;;0.20;0.10;;;;;;;;;;4974811;28;20120;-74
2023/03/23 13:08:49;;;;;;;0.20;0.10;;;;;;;;;;4960612;28;20038;-75
2023/03/23 13:11:19;;;;;;;0.20;0.10;;;;;;;;;;4972999;28;20451;-76
2023/03/23 13:13:50;;;;;;;0.20;0.10;;;;;;;;;;4975200;28;20034;-76
2023/03/23 13:16:35;;;;;;;0.20;0.10;;;;;;;;;;4985053;28;20070;-75
2023/03/23 13:19:07;;;;;;;0.20;0.10;;;;;;;;;;4991755;28;20092;-75
2023/03/23 13:21:38;;;;;;;0.90;0.63;;;;;;;;;;4984137;28;20035;-74
2023/03/23 13:24:06;;;;;;;0.20;0.10;;;;;;;;;;4975049;28;20073;-75
2023/03/23 13:26:32;;;;;;;0.20;0.10;;;;;;;;;;4973680;28;20035;-76
2023/03/23 13:29:01;;;;;;;0.20;0.20;;;;;;;;;;4993182;28;20172;-76
2023/03/23 13:31:33;;;;;;;0.20;0.13;;;;;;;;;;4988723;28;20097;-75
2023/03/23 13:34:18;;;;;;;0.25;0.25;;;;;;;;;;4974631;28;20045;-74
2023/03/23 13:36:45;;;;;;;0.20;0.10;;;;;;;;;;4991764;28;20078;-76
2023/03/23 13:39:20;;;;;;;0.25;0.20;;;;;;;;;;4975019;28;20096;-76
2023/03/23 13:41:59;;;;;;;0.20;0.10;;;;;;;;;;4989687;28;20052;-75
2023/03/23 13:44:26;;;;;;;0.20;0.10;;;;;;;;;;4991182;28;20097;-74
2023/03/23 13:46:56;;;;;;;0.38;0.38;;;;;;;;;;4989821;28;20046;-77
2023/03/23 13:49:25;;;;;;;0.20;0.10;;;;;;;;;;4977040;28;20464;-75
2023/03/23 13:52:02;;;;;;;0.20;0.10;;;;;;;;;;4990259;28;20061;-75
2023/03/23 13:54:40;;;;;;;0.22;0.10;;;;;;;;;;4975417;28;20053;-77
2023/03/23 13:57:25;;;;;;;0.30;0.28;;;;;;;;;;4966073;28;20112;-76
2023/03/23 13:59:56;;;;;;;0.20;0.10;;;;;;;;;;4976909;28;20511;-75
2023/03/23 14:02:38;;;;;;;0.20;0.10;;;;;;;;;;4985975;28;20034;-75
2023/03/23 14:05:17;;;;;;;0.20;0.10;;;;;;;;;;4970670;28;20141;-76
2023/03/23 14:07:59;;;;;;;0.47;0.47;;;;;;;;;;4983395;28;20047;-74
2023/03/23 14:10:26;;;;;;;0.20;0.10;;;;;;;;;;4970997;28;20436;-75
2023/03/23 14:12:54;;;;;;;0.30;0.30;;;;;;;;;;4987356;28;20180;-73
2023/03/23 14:15:20;;;;;;;0.20;0.10;;;;;;;;;;4955905;28;20035;-74
2023/03/23 14:17:46;;;;;;;0.30;0.30;;;;;;;;;;4986429;28;20530;-73
2023/03/23 14:20:24;;;;;;;0.30;0.25;;;;;;;;;;4982299;28;21288;-73
2023/03/23 14:22:53;;;;;;;0.20;0.05;;;;;;;;;;4968273;28;20046;-74
2023/03/23 14:25:20;;;;;;;0.20;0.17;;;;;;;;;;4984784;28;20097;-75
2023/03/23 14:27:47;;;;;;;0.20;0.10;;;;;;;;;;4982321;28;20072;-74
2023/03/23 14:30:15;;;;;;;0.20;0.10;;;;;;;;;;4983355;28;20053;-75
2023/03/23 14:32:41;;;;;;;0.20;0.10;;;;;;;;;;4992586;28;20109;-73
2023/03/23 14:35:27;;;;;;;0.40;0.40;;;;;;;;;;4990696;28;20046;-75
2023/03/23 14:37:54;;;;;;;0.30;0.30;;;;;;;;;;4994471;28;20038;-75
2023/03/23 14:40:21;;;;;;;0.20;0.10;;;;;;;;;;4996578;28;20046;-78
2023/03/23 14:42:54;;;;;;;0.20;0.10;;;;;;;;;;4986266;28;20085;-75
2023/03/23 14:45:20;;;;;;;0.20;0.10;;;;;;;;;;4980253;28;20069;-73
2023/03/23 14:47:54;;;;;;;1.73;0.75;;;;;;;;;;4987733;28;20053;-77
2023/03/23 14:50:26;;;;;;;0.20;0.10;;;;;;;;;;4970609;28;20041;-74
2023/03/23 14:52:52;;;;;;;0.20;0.10;;;;;;;;;;4966691;28;21863;-75
2023/03/23 14:55:22;;;;;;;0.20;0.10;;;;;;;;;;4979352;28;20061;-75